Tiempo atmosférico en la estación meteorológica de Calasparra, Murcia (394 m.)



Fecha
DESCASC
Temp. máxima en grados centígrados (hora)
DESCASC
Temp. mínima en grados centígrados (hora)
DESCASC
Temp. media en grados centígrados
DESCASC
Racha de viento máxima en m/sg (hora)
DESCASC
Velocidad máxima media en intervalos de 10 minutos(hora)
DESCASC
Precipitaciones diarias en mm
DESCASC
Precipitaciones de 00:00 a 06:00 en mm
DESCASC
Precipitaciones de 06:00 a 12:00 en mm
DESCASC
Precipitaciones de 12:00 a 18:00 en mm
DESCASC
Precipitaciones de 18:00 a 24:00 en mm
DESCASC
20-05-2018 24.3 (16:10) 11.2 (07:10) 17.7 9.72 (17:20) 5.83 (18:50) 0 0 0 0 0
19-05-2018 25.2 (16:40) 11.8 (07:10) 18.5 10.83 (19:40) 6.39 (19:50) 0 0 0 0 0
18-05-2018 24.6 (15:20) 10.4 (00:00) 17.5 10 (17:10) 6.39 (19:50) 0 0 0 0 0
17-05-2018 22.6 (16:30) 9.7 (00:00) 16.2 13.06 (14:40) 5.83 (13:40) 0 0 0 0 0
16-05-2018 23.9 (16:30) 10.8 (00:00) 17.3 9.72 (19:00) 5.28 (19:00) 0 0 0 0 0
15-05-2018 24 (16:30) 10.9 (00:00) 17.4 10.28 (17:50) 6.11 (18:10) 0 0 0 0 0
14-05-2018 23.6 (15:40) 10.5 (00:00) 17.1 11.11 (16:50) 5.83 (16:50) 0 0 0 0 0
13-05-2018 22.3 (17:20) 10.4 (00:00) 16.3 11.11 (19:40) 6.39 (09:50) 0 0 0 0 0
12-05-2018 26.6 (14:30) 13.9 (00:00) 20.3 13.61 (20:00) 7.5 (20:00) 0 0 0 0 0
11-05-2018 24.3 (17:00) 13.2 (04:20) 18.7 7.5 (17:40) 4.44 (17:50) 0 0 0 0 0
10-05-2018 24.1 (13:00) 15.4 (00:00) 19.8 10.83 (13:50) 6.11 (14:00) 8 0 0 7.8 0.2
09-05-2018 27.6 (15:40) 12.3 (00:00) 20 8.89 (16:50) 5 (16:50) 5 0 0 1.4 3.6
08-05-2018 27.3 (14:40) 11.5 (00:00) 19.4 14.17 (16:40) 6.11 (16:50) 4.8 0 0 2.6 2.2
07-05-2018 25.8 (16:10) 10.8 (00:00) 18.3 8.33 (20:10) 5.28 (20:30) 0 0 0 0 0
06-05-2018 24.1 (16:10) 13.5 (00:00) 18.8 10.28 (17:30) 6.11 (17:40) 0 0 0 0 0
05-05-2018 26 (16:00) 13.5 (00:00) 19.8 8.61 (19:40) 5.28 (19:40) 0 0 0 0 0
04-05-2018 24 (16:30) 11.8 (00:00) 17.9 9.17 (17:10) 5.83 (20:40) 0 0 0 0 0
03-05-2018 23.7 (17:30) 13.5 (00:00) 18.6 11.39 (13:30) 6.39 (17:20) 0 0 0 0 0
02-05-2018 21 (16:10) 5.3 (00:00) 13.2 10 (14:00) 5.56 (17:00) 0 0 0 0 0
01-05-2018 18.4 (14:30) 6.2 (06:40) 12.3 10.83 (17:30) 5.28 (17:30) 0.2 0 0 0.2 0
30-04-2018 18.8 (15:10) 7.8 (00:00) 13.3 9.72 (22:20) 5.28 (22:20) 0 0 0 0 0
29-04-2018 19 (16:30) 11.5 (00:00) 15.3 15.28 (08:40) 7.5 (15:20) 0 0 0 0 0
28-04-2018 27.1 (15:00) 11.7 (00:00) 19.4 13.61 (16:40) 8.33 (16:20) 0 0 0 0 0
27-04-2018 28.2 (13:40) 11.6 (00:00) 19.9 10.83 (14:40) 6.67 (14:50) 5.4 0 0 3.6 1.8
26-04-2018 23.1 (14:30) 14.2 (00:00) 18.7 8.06 (18:10) 5 (15:20) 0.6 0.4 0.2 0 0
25-04-2018 22.7 (17:00) 14.7 (00:00) 18.7 6.39 (10:00) 3.89 (18:30) 0 0 0 0 0
24-04-2018 27.8 (15:20) 15.3 (00:00) 21.5 13.61 (15:50) 7.22 (17:40) 0 0 0 0 0
23-04-2018 27.4 (17:50) 14.4 (00:00) 20.9 9.17 (20:10) 5 (20:50) 0 0 0 0 0
22-04-2018 24.3 (15:20) 11.8 (00:00) 18 9.17 (16:50) 5.56 (16:30) 0.4 0.4 0 0 0

Gráficas

Temp. máximas Temp. mínimas Temp. medias Precipitaciones Rachas de viento máximas Velocidades máximas media en intervalos de 10 minutos

Datos horarios

Fecha y hora oficial Temperatura (ºC) Velocidad del viento (km/h) Dirección del viento Racha (km/h) Dirección de racha Precipitación (mm) Presión (hPa) Tendencia (hPa) Humedad (%)
2018-05-21 23:00:00 -- -- -- -- -- -- -- -- --
2018-05-21 22:00:00 -- -- -- -- -- -- -- -- --
2018-05-21 21:00:00 21.5 10 Sudeste 23 Sur 0 -- -- 43
2018-05-21 20:00:00 22.5 14 Sur 25 Sur 0 -- -- 40
2018-05-21 19:00:00 22.7 15 Sur 46 Sur 0 -- -- 41
2018-05-21 18:00:00 23.3 27 Sur 54 Sur 0 -- -- 40
2018-05-21 17:00:00 26.3 11 Sudeste 31 Sudeste 0 -- -- 28
2018-05-21 16:00:00 25.6 8 Este 27 Sudeste 0 -- -- 29
2018-05-21 15:00:00 25.2 8 Este 23 Sudeste 0 -- -- 30
2018-05-21 14:00:00 25 12 Sudeste 30 Sudeste 0 -- -- 33
2018-05-21 13:00:00 23.9 10 Sudeste 19 Sur 0 -- -- 41
2018-05-21 12:00:00 22.6 5 Sur 15 Sudeste 0 -- -- 44
2018-05-21 11:00:00 20.8 5 Sudeste 11 Sudeste 0 -- -- 50
2018-05-21 10:00:00 18.7 3 Este 7 Este 0 -- -- 57
2018-05-21 09:00:00 15.8 3 Sudeste 5 Sudeste 0 -- -- 65
2018-05-21 08:00:00 13.3 4 Sur 8 Sur 0 -- -- 73
2018-05-21 07:00:00 11.4 5 Sur 8 Sudeste 0 -- -- 78
2018-05-21 06:00:00 12 5 Sur 6 Sur 0 -- -- 77
2018-05-21 05:00:00 12.7 0 Calma 4 Sudeste 0 -- -- 75
2018-05-21 04:00:00 13.6 0 Calma 6 Sudoeste 0 -- -- 72
2018-05-21 03:00:00 14.3 2 Sudeste 8 Oeste 0 -- -- 73
2018-05-21 02:00:00 15.2 2 Norte 7 Oeste 0 -- -- 70
2018-05-21 01:00:00 15.5 4 Noroeste 6 Noroeste 0 -- -- 67
2018-05-21 00:00:00 17.3 4 Nordeste 14 Sudeste 0 -- -- 61
2018-05-20 23:00:00 18.3 9 Sudeste 15 Sudeste 0 -- -- 58
2018-05-20 22:00:00 19.2 9 Sur 24 Sudeste 0 -- -- 53
2018-05-20 21:00:00 20.4 14 Sudeste 35 Sudeste 0 -- -- 49
2018-05-20 20:00:00 22 18 Sudeste 34 Sudeste 0 -- -- 44
2018-05-20 19:00:00 23 19 Sudeste 35 Sudeste 0 -- -- 38
2018-05-20 18:00:00 23.8 17 Sudeste 35 Sudeste 0 -- -- 35
2018-05-20 17:00:00 24 15 Sudeste 32 Este 0 -- -- 34
2018-05-20 16:00:00 24.1 14 Sudeste 32 Este 0 -- -- 36
2018-05-20 15:00:00 23 11 Sudeste 25 Sudeste 0 -- -- 39
2018-05-20 14:00:00 22.4 6 Sudeste 19 Este 0 -- -- 42
2018-05-20 13:00:00 22.4 8 Nordeste 23 Este 0 -- -- 38
2018-05-20 12:00:00 21.8 4 Este 12 Nordeste 0 -- -- 43
2018-05-20 11:00:00 19.6 6 Norte 13 Norte 0 -- -- 49
2018-05-20 10:00:00 17.4 5 Norte 9 Nordeste 0 -- -- 65
2018-05-20 09:00:00 15 3 Norte 6 Norte 0 -- -- 73
2018-05-20 08:00:00 13.1 2 Norte 6 Sur 0 -- -- 80
2018-05-20 07:00:00 11.3 4 Sur 6 Sur 0 -- -- 82
2018-05-20 06:00:00 11.6 0 Calma 6 Sudoeste 0 -- -- 83
2018-05-20 05:00:00 12.3 3 Sudeste 9 Oeste 0 -- -- 80
2018-05-20 04:00:00 12.6 8 Oeste 10 Oeste 0 -- -- 83
2018-05-20 03:00:00 13.5 3 Norte 6 Noroeste 0 -- -- 81
2018-05-20 02:00:00 14.9 4 Sudeste 10 Sudeste 0 -- -- 77
2018-05-20 01:00:00 15.8 7 Sudeste 13 Sudeste 0 -- -- 73
2018-05-20 00:00:00 16.3 8 Sudeste 16 Sudeste 0 -- -- 67
2018-05-19 23:00:00 17.3 11 Sudeste 22 Sudeste 0 -- -- 63
2018-05-19 22:00:00 18.5 13 Sudeste 27 Sudeste 0 -- -- 59
2018-05-19 21:00:00 19.9 21 Sudeste 36 Sudeste 0 -- -- 55
2018-05-19 20:00:00 21.5 23 Sudeste 39 Este 0 -- -- 49
2018-05-19 19:00:00 23.9 18 Sudeste 32 Sudeste 0 -- -- 38
2018-05-19 18:00:00 25.1 7 Sur 28 Sudeste 0 -- -- 34
2018-05-19 17:00:00 24.8 12 Sudeste 23 Sudeste 0 -- -- 34
2018-05-19 16:00:00 24.7 5 Este 25 Sudeste 0 -- -- 32
2018-05-19 15:00:00 24.7 9 Nordeste 22 Nordeste 0 -- -- 33
2018-05-19 14:00:00 23.6 9 Nordeste 24 Noroeste 0 -- -- 34
2018-05-19 13:00:00 23.2 11 Nordeste 34 Nordeste 0 -- -- 35
2018-05-19 12:00:00 21.6 5 Norte 16 Nordeste 0 -- -- 43
2018-05-19 11:00:00 20.6 4 Nordeste 18 Nordeste 0 -- -- 48
2018-05-19 10:00:00 18.2 5 Norte 10 Noroeste 0 -- -- 58
2018-05-19 09:00:00 16 3 Nordeste 9 Oeste 0 -- -- 66
2018-05-19 08:00:00 13.6 3 Noroeste 6 Noroeste 0 -- -- 73
2018-05-19 07:00:00 11.9 3 Sur 8 Oeste 0 -- -- 75
2018-05-19 06:00:00 12.7 7 Oeste 11 Oeste 0 -- -- 76
2018-05-19 05:00:00 12.9 3 Oeste 8 Oeste 0 -- -- 76
2018-05-19 04:00:00 13.4 0 Calma 6 Oeste 0 -- -- 73
2018-05-19 03:00:00 14.6 2 Nordeste 8 Sur 0 -- -- 69
2018-05-19 02:00:00 15.4 3 Sur 6 Sur 0 -- -- 67
2018-05-19 01:00:00 16.2 3 Sudeste 6 Sudeste 0 -- -- 65
2018-05-19 00:00:00 16.8 2 Este 11 Sur 0 -- -- 62
2018-05-18 23:00:00 17.5 5 Sur 14 Sudeste 0 -- -- 58
2018-05-18 22:00:00 18.8 9 Sudeste 27 Sudeste 0 -- -- 53
2018-05-18 21:00:00 20.1 15 Sudeste 35 Sudeste 0 -- -- 49
2018-05-18 20:00:00 21.5 23 Sudeste 36 Sudeste 0 -- -- 45
2018-05-18 19:00:00 23.1 20 Sudeste 34 Sudeste 0 -- -- 40
2018-05-18 18:00:00 23.5 21 Sudeste 36 Sur 0 -- -- 38
2018-05-18 17:00:00 24.2 18 Sudeste 36 Este 0 -- -- 36
2018-05-18 16:00:00 24.6 14 Sudeste 29 Sudeste 0 -- -- 34
2018-05-18 15:00:00 24.2 13 Sudeste 29 Sudeste 0 -- -- 35
2018-05-18 14:00:00 23.1 12 Sudeste 24 Sudeste 0 -- -- 38
2018-05-18 13:00:00 22.8 14 Sudeste 26 Sudeste 0 -- -- 40
2018-05-18 12:00:00 21.7 6 Sudeste 17 Sudeste 0 -- -- 44
2018-05-18 11:00:00 20.2 3 Este 10 Nordeste 0 -- -- 48
2018-05-18 10:00:00 17.1 5 Norte 10 Norte 0 -- -- 58
2018-05-18 09:00:00 15 0 Calma 7 Oeste 0 -- -- 64
2018-05-18 08:00:00 12 4 Oeste 10 Noroeste 0 -- -- 73
2018-05-18 07:00:00 10.4 3 Sudoeste 6 Sur 0 -- -- 77
2018-05-18 06:00:00 11.2 3 Sur 6 Sur 0 -- -- 74
2018-05-18 05:00:00 11.6 4 Sudoeste 9 Sudoeste 0 -- -- 74
2018-05-18 04:00:00 11.9 4 Sur 9 Sur 0 -- -- 71
2018-05-18 03:00:00 13.1 3 Sudeste 7 Oeste 0 -- -- 70
2018-05-18 02:00:00 14.1 3 Oeste 9 Sudeste 0 -- -- 68
2018-05-18 01:00:00 14.9 4 Sudeste 13 Sudeste 0 -- -- 63
2018-05-18 00:00:00 15.6 6 Sudeste 14 Sudeste 0 -- -- 59
2018-05-17 23:00:00 16.5 9 Sur 16 Sudeste 0 -- -- 56
2018-05-17 22:00:00 17.4 12 Sudeste 22 Sudeste 0 -- -- 53
2018-05-17 21:00:00 18.8 13 Sudeste 28 Sudeste 0 -- -- 50
2018-05-17 20:00:00 20.1 18 Sudeste 30 Sudeste 0 -- -- 47
2018-05-17 19:00:00 21.4 18 Sudeste 34 Sudeste 0 -- -- 45
2018-05-17 18:00:00 22.1 18 Sudeste 38 Sudeste 0 -- -- 43
2018-05-17 17:00:00 22.5 19 Sudeste 38 Sudeste 0 -- -- 42
2018-05-17 16:00:00 22.1 17 Sudeste 32 Sudeste 0 -- -- 42
2018-05-17 15:00:00 22.1 18 Este 47 Sudeste 0 -- -- 40
2018-05-17 14:00:00 22.4 20 Sudeste 38 Sudeste 0 -- -- 37
2018-05-17 13:00:00 21.9 14 Este 30 Este 0 -- -- 37
2018-05-17 12:00:00 21.2 8 Este 19 Nordeste 0 -- -- 40
2018-05-17 11:00:00 19.4 6 Nordeste 14 Nordeste 0 -- -- 44
2018-05-17 10:00:00 16.7 5 Norte 11 Norte 0 -- -- 48
2018-05-17 09:00:00 13.9 3 Noroeste 8 Oeste 0 -- -- 56
2018-05-17 08:00:00 11.1 5 Sur 11 Oeste 0 -- -- 63
2018-05-17 07:00:00 10.3 0 Calma 6 Sudoeste 0 -- -- 66
2018-05-17 06:00:00 10.4 4 Sur 9 Sudeste 0 -- -- 64
2018-05-17 05:00:00 10.9 4 Sur 8 Sur 0 -- -- 61
2018-05-17 04:00:00 11.6 0 Calma 10 Sur 0 -- -- 57
2018-05-17 03:00:00 12.8 7 Sur 10 Sur 0 -- -- 55
2018-05-17 02:00:00 13.4 4 Sur 7 Sur 0 -- -- 53
2018-05-17 01:00:00 14.5 5 Sur 10 Sudeste 0 -- -- 52
2018-05-17 00:00:00 15.5 6 Sudeste 9 Sudeste 0 -- -- 45
2018-05-16 23:00:00 16.4 5 Sudeste 13 Sudeste 0 -- -- 43
2018-05-16 22:00:00 17.6 8 Sur 19 Sudeste 0 -- -- 39
2018-05-16 21:00:00 19.2 13 Sudeste 29 Sudeste 0 -- -- 35
2018-05-16 20:00:00 21.2 18 Sudeste 33 Sudeste 0 -- -- 31
2018-05-16 19:00:00 22.4 19 Sudeste 35 Sur 0 -- -- 31
2018-05-16 18:00:00 23.3 15 Sudeste 32 Este 0 -- -- 27
2018-05-16 17:00:00 23.4 13 Sudeste 26 Sudeste 0 -- -- 28
2018-05-16 16:00:00 23.6 14 Sudeste 31 Sudeste 0 -- -- 29
2018-05-16 15:00:00 23 15 Sudeste 32 Sudeste 0 -- -- 31
2018-05-16 14:00:00 22.5 13 Sudeste 27 Sudeste 0 -- -- 35
2018-05-16 13:00:00 21.3 6 Nordeste 19 Este 0 -- -- 45
2018-05-16 12:00:00 20.1 5 Este 15 Sudeste 0 -- -- 50
2018-05-16 11:00:00 18.6 7 Nordeste 16 Nordeste 0 -- -- 54
2018-05-16 10:00:00 17 5 Norte 10 Este 0 -- -- 64
2018-05-16 09:00:00 14.9 3 Sudeste 5 Sur 0 -- -- 69
2018-05-16 08:00:00 11.6 4 Sur 6 Sur 0 -- -- 78
2018-05-16 07:00:00 10.8 4 Sur 8 Sudoeste 0 -- -- 83
2018-05-16 06:00:00 11 4 Sur 8 Sur 0 -- -- 83
2018-05-16 05:00:00 11.8 3 Sur 8 Oeste 0 -- -- 80
2018-05-16 04:00:00 12 0 Calma 8 Oeste 0 -- -- 80
2018-05-16 03:00:00 12.9 6 Oeste 8 Oeste 0 -- -- 80
2018-05-16 02:00:00 13.6 0 Calma 4 Nordeste 0 -- -- 77
2018-05-16 01:00:00 14.7 2 Este 11 Sudeste 0 -- -- 72
2018-05-16 00:00:00 15.4 6 Sur 11 Sudeste 0 -- -- 69
2018-05-15 23:00:00 16.5 7 Sudeste 18 Sudeste 0 -- -- 62
2018-05-15 22:00:00 17.8 10 Sudeste 26 Sudeste 0 -- -- 56
2018-05-15 21:00:00 19.1 18 Sudeste 31 Sudeste 0 -- -- 53
2018-05-15 20:00:00 20.4 20 Sudeste 31 Sudeste 0 -- -- 48
2018-05-15 19:00:00 21.6 17 Sudeste 33 Sudeste 0 -- -- 43
2018-05-15 18:00:00 22.5 18 Sudeste 37 Sudeste 0 -- -- 39
2018-05-15 17:00:00 23.5 14 Sudeste 28 Sudeste 0 -- -- 35
2018-05-15 16:00:00 23.6 11 Sudeste 26 Sudeste 0 -- -- 35
2018-05-15 15:00:00 23 10 Sudeste 23 Sudeste 0 -- -- 33
2018-05-15 14:00:00 22.3 10 Nordeste 19 Este 0 -- -- 35
2018-05-15 13:00:00 21.1 7 Este 16 Nordeste 0 -- -- 37
2018-05-15 12:00:00 19.9 5 Este 13 Sudeste 0 -- -- 40
2018-05-15 11:00:00 18 6 Nordeste 16 Este 0 -- -- 44
2018-05-15 10:00:00 16.1 5 Norte 14 Norte 0 -- -- 47
2018-05-15 09:00:00 14.6 7 Norte 15 Norte 0 -- -- 51
2018-05-15 08:00:00 12.2 4 Norte 12 Noroeste 0 -- -- 58
2018-05-15 07:00:00 10.9 8 Noroeste 13 Noroeste 0 -- -- 60
2018-05-15 06:00:00 12.3 6 Oeste 10 Oeste 0 -- -- 57
2018-05-15 05:00:00 12.7 5 Oeste 11 Oeste 0 -- -- 54
2018-05-15 04:00:00 12.1 6 Noroeste 15 Noroeste 0 -- -- 63
2018-05-15 03:00:00 12.4 3 Sudoeste 7 Sur 0 -- -- 68
2018-05-15 02:00:00 13.8 5 Sur 9 Sur 0 -- -- 65
2018-05-15 01:00:00 14.6 4 Sur 6 Sur 0 -- -- 61
2018-05-15 00:00:00 15.7 2 Norte 4 Nordeste 0 -- -- 57
2018-05-14 23:00:00 17.3 4 Sudeste 19 Sudeste 0 -- -- 50
2018-05-14 22:00:00 20 8 Norte 21 Norte 0 -- -- 33
2018-05-14 21:00:00 21.2 14 Norte 31 Norte 0 -- -- 30
2018-05-14 20:00:00 23.1 12 Noroeste 27 Norte 0 -- -- 29
2018-05-14 19:00:00 22.3 12 Noroeste 28 Noroeste 0 -- -- 31
2018-05-14 18:00:00 21.9 14 Norte 33 Norte 0 -- -- 32
2018-05-14 17:00:00 22 18 Norte 40 Norte 0 -- -- 32
2018-05-14 16:00:00 23.5 15 Norte 33 Norte 0 -- -- 30
2018-05-14 15:00:00 23.3 13 Norte 28 Noroeste 0 -- -- 29
2018-05-14 14:00:00 22 10 Nordeste 27 Nordeste 0 -- -- 31
2018-05-14 13:00:00 20.4 14 Nordeste 29 Nordeste 0 -- -- 34
2018-05-14 12:00:00 19.5 12 Nordeste 21 Nordeste 0 -- -- 34
2018-05-14 11:00:00 18.1 6 Norte 21 Oeste 0 -- -- 36
2018-05-14 10:00:00 17.3 4 Nordeste 10 Nordeste 0 -- -- 37
2018-05-14 09:00:00 13.4 4 Norte 10 Oeste 0 -- -- 42
2018-05-14 08:00:00 11.6 2 Oeste 5 Oeste 0 -- -- 43
2018-05-14 07:00:00 10.5 2 Noroeste 8 Oeste 0 -- -- 43
2018-05-14 06:00:00 11.3 6 Oeste 15 Oeste 0 -- -- 41
2018-05-14 05:00:00 12.1 8 Oeste 14 Oeste 0 -- -- 39
2018-05-14 04:00:00 12 0 Calma 7 Oeste 0 -- -- 41
2018-05-14 03:00:00 12.1 2 Este 5 Sudeste 0 -- -- 39
2018-05-14 02:00:00 13.4 3 Sudeste 12 Sudoeste 0 -- -- 38
2018-05-14 01:00:00 15.5 6 Oeste 12 Sudoeste 0 -- -- 28
2018-05-11 20:00:00 -- -- -- -- -- -- -- -- --
2018-05-11 19:00:00 -- -- -- -- -- -- -- -- --
2018-05-11 18:00:00 -- -- -- -- -- -- -- -- --
2018-05-11 17:00:00 24.3 13 Sudeste 24 Sudeste 0 -- -- 54
2018-05-11 16:00:00 23.4 10 Sudeste 23 Sudeste 0 -- -- 59
2018-05-11 15:00:00 22.1 7 Sudeste 16 Sudeste 0 -- -- 61
2018-05-11 14:00:00 20.3 8 Sudeste 19 Sudeste 0 -- -- 66
2018-05-11 13:00:00 18.7 9 Sudeste 18 Sudeste 0 -- -- 70
2018-05-11 12:00:00 16.9 9 Sudeste 17 Sudeste 0 -- -- 76
2018-05-11 11:00:00 15.8 7 Sudeste 13 Sudeste 0 -- -- 82
2018-05-11 10:00:00 15.6 5 Sur 10 Sur 0 -- -- 86
2018-05-11 09:00:00 14 5 Sur 9 Sudeste 0 -- -- 92
2018-05-11 08:00:00 13.4 3 Sur 6 Oeste 0 -- -- 92
2018-05-11 07:00:00 13.2 5 Oeste 9 Oeste 0 -- -- 92
2018-05-11 06:00:00 13.3 3 Sur 6 Sudoeste 0 -- -- 91
2018-05-11 05:00:00 13.2 4 Sudeste 10 Sudeste 0 -- -- 91
2018-05-11 04:00:00 13.5 8 Sur 12 Sur 0 -- -- 91
2018-05-11 03:00:00 13.9 6 Sur 11 Sur 0 -- -- 92
2018-05-11 02:00:00 14.3 4 Noroeste 11 Sudeste 0 -- -- 91
2018-05-11 01:00:00 15 9 Sudeste 14 Sudeste 0 -- -- 89
2018-05-11 00:00:00 15.5 3 Sudoeste 21 Sur 0 -- -- 88
2018-05-10 23:00:00 15.7 3 Sur 7 Oeste 0 -- -- 86
2018-05-10 22:00:00 15.9 2 Norte 16 Nordeste 0 -- -- 86
2018-05-10 21:00:00 16.9 9 Este 28 Sudeste 0 -- -- 81
2018-05-10 20:00:00 17 14 Sudeste 26 Sudeste 0.2 -- -- 82
2018-05-10 19:00:00 17.2 12 Sudeste 20 Este 0 -- -- 82
2018-05-10 18:00:00 16.9 12 Sudeste 21 Sudeste 0 -- -- 87
2018-05-10 17:00:00 16.5 20 Sudeste 32 Sudeste 0.2 -- -- 87
2018-05-10 16:00:00 16.1 13 Sur 24 Sur 0 -- -- 84
2018-05-10 15:00:00 16.7 8 Sudoeste 28 Noroeste 6 -- -- 84
2018-05-10 14:00:00 19.3 22 Nordeste 39 Nordeste 1.6 -- -- 57
2018-05-10 13:00:00 24.1 6 Este 17 Sudeste 0 -- -- 53
2018-05-10 12:00:00 23.5 6 Sudeste 13 Sudeste 0 -- -- 56
2018-05-10 11:00:00 21.5 6 Este 11 Este 0 -- -- 63
2018-05-10 10:00:00 19.2 3 Sur 12 Sudeste 0 -- -- 71
2018-05-10 09:00:00 17.8 6 Sur 10 Sur 0 -- -- 73
2018-05-10 08:00:00 16.4 6 Sur 10 Sudoeste 0 -- -- 80
2018-05-10 07:00:00 16.5 8 Sudoeste 10 Sudoeste 0 -- -- 80
2018-05-10 06:00:00 17.7 0 Calma 8 Sudoeste 0 -- -- 73
2018-05-10 05:00:00 16.7 2 Sudeste 9 Sudoeste 0 -- -- 80
2018-05-10 04:00:00 15.7 7 Sudoeste 11 Sudoeste 0 -- -- 87
2018-05-10 03:00:00 15.7 8 Sur 11 Sur 0 -- -- 88
2018-05-10 02:00:00 16.1 4 Sur 8 Sur 0 -- -- 87
2018-05-10 01:00:00 16.4 0 Calma 6 Sudoeste 0 -- -- 85
2018-05-10 00:00:00 16.4 2 Noroeste 9 Nordeste 0 -- -- 88
2018-05-09 23:00:00 17.5 5 Nordeste 9 Nordeste 0 -- -- 83
2018-05-09 22:00:00 18.6 6 Sudeste 14 Sudeste 0 -- -- 76
2018-05-09 21:00:00 19.1 4 Norte 19 Sudeste 0 -- -- 78
2018-05-09 20:00:00 19.6 13 Sudeste 31 Sur 1 -- -- 73
2018-05-09 19:00:00 19.1 11 Sur 29 Sur 2.6 -- -- 76
2018-05-09 18:00:00 19.4 13 Sur 28 Sur 1 -- -- 76
2018-05-09 17:00:00 21.3 14 Sudeste 32 Sudeste 0.4 -- -- 64
2018-05-09 16:00:00 27.3 10 Sur 19 Sur 0 -- -- 37
2018-05-09 15:00:00 26.3 3 Norte 23 Sudoeste 0 -- -- 41
2018-05-09 14:00:00 26.7 7 Este 14 Sudeste 0 -- -- 42
2018-05-09 13:00:00 25.4 5 Nordeste 12 Este 0 -- -- 46
2018-05-09 12:00:00 23.5 5 Este 10 Este 0 -- -- 51
2018-05-09 11:00:00 21.1 4 Este 8 Norte 0 -- -- 59
2018-05-09 10:00:00 18 3 Norte 8 Noroeste 0 -- -- 67
2018-05-09 09:00:00 15.8 3 Norte 6 Sudeste 0 -- -- 75
2018-05-09 08:00:00 13.2 6 Sudoeste 9 Sur 0 -- -- 87
2018-05-09 07:00:00 12.3 0 Calma 7 Noroeste 0 -- -- 88
2018-05-09 06:00:00 13.1 4 Oeste 11 Sudeste 0 -- -- 88
2018-05-09 05:00:00 13.3 6 Sudeste 12 Sur 0 -- -- 87
2018-05-09 04:00:00 13.8 3 Sur 8 Sur 0 -- -- 88
2018-05-09 03:00:00 14.7 4 Oeste 8 Oeste 0 -- -- 88
2018-05-09 02:00:00 14.6 5 Sudoeste 9 Sudeste 0 -- -- 88
2018-05-09 01:00:00 15.7 3 Sudoeste 7 Sur 0 -- -- 88
2018-05-09 00:00:00 16.1 2 Sur 6 Oeste 0 -- -- 87
2018-05-08 23:00:00 16.3 5 Oeste 9 Oeste 0 -- -- 86
2018-05-08 22:00:00 17.2 5 Oeste 8 Oeste 0 -- -- 86
2018-05-08 21:00:00 18.3 6 Sudeste 13 Sur 0 -- -- 81
2018-05-08 20:00:00 18.9 4 Oeste 16 Sur 0 -- -- 80
2018-05-08 19:00:00 17.7 9 Sur 17 Sur 2.2 -- -- 88
2018-05-08 18:00:00 18 6 Nordeste 34 Norte 2.6 -- -- 83
2018-05-08 17:00:00 23.1 19 Este 51 Este 0 -- -- 51
2018-05-08 16:00:00 26.7 12 Oeste 26 Oeste 0 -- -- 34
2018-05-08 15:00:00 26.1 14 Norte 24 Noroeste 0 -- -- 36
2018-05-08 14:00:00 25.5 6 Nordeste 14 Este 0 -- -- 36
2018-05-08 13:00:00 24.9 6 Norte 19 Noroeste 0 -- -- 39
2018-05-08 12:00:00 22.8 4 Este 12 Norte 0 -- -- 44
2018-05-08 11:00:00 19.2 4 Noroeste 9 Noroeste 0 -- -- 52
2018-05-08 10:00:00 16.7 2 Nordeste 6 Sur 0 -- -- 60
2018-05-08 09:00:00 14.2 4 Sur 6 Sur 0 -- -- 73
2018-05-08 08:00:00 12.3 4 Sudeste 5 Sur 0 -- -- 79
2018-05-08 07:00:00 11.6 0 Calma 7 Sur 0 -- -- 81
2018-05-08 06:00:00 12.3 2 Sudoeste 6 Sudoeste 0 -- -- 81
2018-05-08 05:00:00 12.4 2 Sudoeste 4 Sur 0 -- -- 82
2018-05-08 04:00:00 13.5 4 Oeste 9 Oeste 0 -- -- 83
2018-05-08 03:00:00 13.9 4 Noroeste 6 Nordeste 0 -- -- 81
2018-05-08 02:00:00 14.6 3 Nordeste 5 Nordeste 0 -- -- 77
2018-05-08 01:00:00 15.7 3 Nordeste 18 Este 0 -- -- 71
2018-05-08 00:00:00 16.9 8 Sudeste 21 Sudeste 0 -- -- 66
2018-05-07 23:00:00 17.7 13 Sudeste 27 Sudeste 0 -- -- 63
2018-05-07 22:00:00 19 18 Sudeste 30 Sudeste 0 -- -- 57
2018-05-07 21:00:00 21.1 18 Sudeste 30 Sudeste 0 -- -- 48
2018-05-07 20:00:00 23.8 16 Sudeste 26 Sudeste 0 -- -- 40
2018-05-07 19:00:00 25.2 9 Sudeste 18 Sudeste 0 -- -- 35
2018-05-07 18:00:00 25.5 10 Este 22 Nordeste 0 -- -- 32
2018-05-07 17:00:00 25.2 6 Sudeste 20 Este 0 -- -- 32
2018-05-07 16:00:00 25.5 8 Sudeste 18 Sur 0 -- -- 33
2018-05-07 15:00:00 23.5 7 Sudeste 18 Este 0 -- -- 38
2018-05-07 14:00:00 23.1 8 Nordeste 19 Este 0 -- -- 40
2018-05-07 13:00:00 22.2 4 Noroeste 14 Nordeste 0 -- -- 41
2018-05-07 12:00:00 21.3 5 Sur 13 Norte 0 -- -- 48
2018-05-07 11:00:00 19.8 4 Nordeste 10 Nordeste 0 -- -- 53
2018-05-07 10:00:00 17.3 3 Norte 8 Nordeste 0 -- -- 60
2018-05-07 09:00:00 13.9 4 Noroeste 9 Noroeste 0 -- -- 69
2018-05-07 08:00:00 11.8 2 Sur 6 Sudoeste 0 -- -- 75
2018-05-07 07:00:00 10.9 2 Sur 10 Sur 0 -- -- 78
2018-05-07 06:00:00 11.3 4 Sur 7 Sudeste 0 -- -- 78
2018-05-07 05:00:00 11.9 4 Sur 6 Sudeste 0 -- -- 75
2018-05-07 04:00:00 12.8 4 Sur 8 Sur 0 -- -- 74
2018-05-07 03:00:00 13.7 6 Sur 8 Sur 0 -- -- 72
2018-05-07 02:00:00 14.5 3 Sur 7 Sur 0 -- -- 69
2018-05-07 01:00:00 15.5 5 Sur 10 Sudeste 0 -- -- 69
2018-05-07 00:00:00 16.1 6 Sudeste 12 Sudeste 0 -- -- 65
2018-05-06 23:00:00 16.9 7 Sudeste 13 Sudeste 0 -- -- 62
2018-05-06 22:00:00 17.8 9 Sur 29 Sudeste 0 -- -- 58
2018-05-06 21:00:00 19.2 17 Sudeste 29 Sudeste 0 -- -- 54
2018-05-06 20:00:00 21 18 Sudeste 31 Sudeste 0 -- -- 48
2018-05-06 19:00:00 22.1 19 Sudeste 35 Sudeste 0 -- -- 45
2018-05-06 18:00:00 22.8 17 Sudeste 37 Sudeste 0 -- -- 42
2018-05-06 17:00:00 23.7 16 Sudeste 33 Sudeste 0 -- -- 37
2018-05-06 16:00:00 24 11 Sudeste 27 Sudeste 0 -- -- 36
2018-05-06 15:00:00 23.6 8 Este 17 Sur 0 -- -- 37
2018-05-06 14:00:00 21.8 5 Nordeste 13 Este 0 -- -- 43
2018-05-06 13:00:00 21.8 7 Sudeste 22 Nordeste 0 -- -- 43
2018-05-06 12:00:00 21.2 9 Nordeste 19 Nordeste 0 -- -- 46
2018-05-06 11:00:00 19.8 5 Este 15 Este 0 -- -- 52
2018-05-06 10:00:00 17.9 7 Norte 13 Noroeste 0 -- -- 58
2018-05-06 09:00:00 15.7 8 Noroeste 10 Noroeste 0 -- -- 72
2018-05-06 08:00:00 14.3 6 Oeste 10 Oeste 0 -- -- 77
2018-05-06 07:00:00 13.5 7 Oeste 11 Noroeste 0 -- -- 80
2018-05-06 06:00:00 14 6 Noroeste 9 Oeste 0 -- -- 74
2018-05-06 05:00:00 15.2 4 Oeste 8 Oeste 0 -- -- 67
2018-05-06 04:00:00 15.3 0 Calma 5 Oeste 0 -- -- 64
2018-05-06 03:00:00 15.6 4 Noroeste 6 Oeste 0 -- -- 59
2018-05-06 02:00:00 15.8 3 Noroeste 5 Norte 0 -- -- 60
2018-05-06 01:00:00 15.9 0 Calma 5 Norte 0 -- -- 59
2018-05-06 00:00:00 15.9 3 Noroeste 5 Noroeste 0 -- -- 62
2018-05-05 23:00:00 16.8 4 Este 9 Este 0 -- -- 60
2018-05-05 22:00:00 16.5 6 Nordeste 17 Nordeste 0 -- -- 62
2018-05-05 21:00:00 18.5 8 Nordeste 27 Este 0 -- -- 53
2018-05-05 20:00:00 20.7 16 Sudeste 31 Sudeste 0 -- -- 45
2018-05-05 19:00:00 22.4 17 Sudeste 29 Sudeste 0 -- -- 41
2018-05-05 18:00:00 23.5 13 Este 30 Sudeste 0 -- -- 37
2018-05-05 17:00:00 24.5 7 Nordeste 19 Este 0 -- -- 33
2018-05-05 16:00:00 26 9 Este 21 Nordeste 0 -- -- 30
2018-05-05 15:00:00 25 10 Este 18 Nordeste 0 -- -- 32
2018-05-05 14:00:00 24.7 8 Nordeste 21 Sudeste 0 -- -- 33
2018-05-05 13:00:00 22.9 5 Nordeste 15 Sudeste 0 -- -- 37
2018-05-05 12:00:00 21.5 5 Nordeste 9 Este 0 -- -- 44
2018-05-05 11:00:00 19 3 Nordeste 13 Nordeste 0 -- -- 50
2018-05-05 10:00:00 17.6 5 Nordeste 13 Nordeste 0 -- -- 53
2018-05-05 09:00:00 16.2 4 Nordeste 6 Nordeste 0 -- -- 61
2018-05-05 08:00:00 14.6 0 Calma 3 Noroeste 0 -- -- 68
2018-05-05 07:00:00 13.6 3 Oeste 5 Noroeste 0 -- -- 70
2018-05-05 06:00:00 13.6 3 Noroeste 6 Norte 0 -- -- 71
2018-05-05 05:00:00 13.8 3 Norte 8 Nordeste 0 -- -- 69
2018-05-05 04:00:00 14 5 Nordeste 8 Nordeste 0 -- -- 68
2018-05-05 03:00:00 14.3 2 Norte 9 Este 0 -- -- 64
2018-05-05 02:00:00 15.1 5 Sudeste 10 Sudeste 0 -- -- 61
2018-05-05 01:00:00 15.6 5 Sudeste 16 Sudeste 0 -- -- 57
2018-05-05 00:00:00 15.8 8 Sudeste 18 Sudeste 0 -- -- 55
2018-05-04 23:00:00 16.5 4 Sudeste 16 Sudeste 0 -- -- 51
2018-05-04 22:00:00 17.1 5 Sudeste 29 Sudeste 0 -- -- 47
2018-05-04 21:00:00 18 18 Sudeste 31 Sudeste 0 -- -- 44
2018-05-04 20:00:00 19.8 19 Sudeste 31 Sudeste 0 -- -- 41
2018-05-04 19:00:00 21.3 17 Sudeste 27 Sudeste 0 -- -- 37
2018-05-04 18:00:00 22.2 14 Sudeste 33 Sudeste 0 -- -- 36
2018-05-04 17:00:00 22.7 13 Este 27 Este 0 -- -- 34
2018-05-04 16:00:00 23.6 9 Nordeste 18 Nordeste 0 -- -- 28
2018-05-04 15:00:00 22.9 5 Sudeste 18 Nordeste 0 -- -- 26
2018-05-04 14:00:00 21.8 9 Sudeste 19 Sudeste 0 -- -- 33
2018-05-04 13:00:00 20.6 6 Sur 13 Oeste 0 -- -- 36
2018-05-04 12:00:00 19.6 5 Nordeste 13 Norte 0 -- -- 38
2018-05-04 11:00:00 17.2 7 Norte 17 Norte 0 -- -- 43
2018-05-04 10:00:00 15.5 5 Norte 14 Norte 0 -- -- 43
2018-05-04 09:00:00 13.8 9 Nordeste 15 Nordeste 0 -- -- 47
2018-05-04 08:00:00 12.6 8 Norte 19 Norte 0 -- -- 50
2018-05-04 07:00:00 12.1 6 Noroeste 13 Noroeste 0 -- -- 53
2018-05-04 06:00:00 12.9 8 Noroeste 16 Norte 0 -- -- 49
2018-05-04 05:00:00 13.5 6 Noroeste 15 Noroeste 0 -- -- 47
2018-05-04 04:00:00 14 8 Noroeste 23 Noroeste 0 -- -- 44
2018-05-04 03:00:00 14.8 10 Noroeste 18 Noroeste 0 -- -- 41
2018-05-04 02:00:00 14.7 8 Noroeste 23 Noroeste 0 -- -- 40
2018-05-04 01:00:00 15.6 12 Noroeste 20 Noroeste 0 -- -- 37
2018-05-04 00:00:00 16.8 12 Oeste 19 Oeste 0 -- -- 38
2018-05-03 23:00:00 17.9 7 Oeste 23 Norte 0 -- -- 34
2018-05-03 22:00:00 20.2 14 Norte 25 Noroeste 0 -- -- 29
2018-05-03 21:00:00 20.9 14 Norte 30 Norte 0 -- -- 30
2018-05-03 20:00:00 21.8 17 Norte 34 Noroeste 0 -- -- 30
2018-05-03 19:00:00 22.6 15 Noroeste 32 Noroeste 0 -- -- 28
2018-05-03 18:00:00 23.7 19 Noroeste 41 Norte 0 -- -- 27
2018-05-03 17:00:00 22.5 14 Norte 31 Norte 0 -- -- 29
2018-05-03 16:00:00 22.7 10 Noroeste 26 Noroeste 0 -- -- 31
2018-05-03 15:00:00 22.9 18 Norte 33 Norte 0 -- -- 33
2018-05-03 14:00:00 22.7 17 Norte 41 Norte 0 -- -- 32
2018-05-03 13:00:00 21.9 19 Norte 36 Norte 0 -- -- 34
2018-05-03 12:00:00 21 21 Norte 38 Norte 0 -- -- 36
2018-05-03 11:00:00 19.5 16 Noroeste 34 Noroeste 0 -- -- 39
2018-05-03 10:00:00 18.3 17 Noroeste 34 Noroeste 0 -- -- 41
2018-05-03 09:00:00 16.1 6 Norte 18 Noroeste 0 -- -- 43
2018-05-03 08:00:00 13.9 0 Calma 9 Oeste 0 -- -- 44
2018-05-03 07:00:00 13.9 3 Oeste 9 Oeste 0 -- -- 42
2018-05-03 06:00:00 14.3 5 Oeste 15 Noroeste 0 -- -- 39
2018-05-03 05:00:00 14.2 2 Noroeste 12 Noroeste 0 -- -- 40
2018-05-03 04:00:00 14.3 6 Noroeste 12 Norte 0 -- -- 41
2018-05-03 03:00:00 14.4 3 Norte 8 Norte 0 -- -- 43
2018-05-03 02:00:00 14.9 4 Oeste 9 Noroeste 0 -- -- 41
2018-05-03 01:00:00 14.9 4 Oeste 10 Oeste 0 -- -- 41
2018-05-03 00:00:00 15.5 6 Oeste 14 Oeste 0 -- -- 39
2018-05-02 23:00:00 16.6 7 Oeste 18 Oeste 0 -- -- 36
2018-05-02 22:00:00 17 9 Oeste 22 Sudoeste 0 -- -- 36
2018-05-02 21:00:00 17.8 13 Oeste 28 Oeste 0 -- -- 34
2018-05-02 20:00:00 19.7 13 Noroeste 32 Noroeste 0 -- -- 30
2018-05-02 19:00:00 20.6 14 Noroeste 33 Oeste 0 -- -- 29
2018-05-02 18:00:00 20.9 15 Oeste 32 Noroeste 0 -- -- 28
2018-05-02 17:00:00 20.3 20 Noroeste 33 Oeste 0 -- -- 27
2018-05-02 16:00:00 20.3 13 Oeste 32 Noroeste 0 -- -- 26
2018-05-02 15:00:00 20.6 9 Oeste 32 Norte 0 -- -- 27
2018-05-02 14:00:00 19.8 16 Oeste 36 Noroeste 0 -- -- 28
2018-05-02 13:00:00 18.9 17 Noroeste 32 Noroeste 0 -- -- 31
2018-05-02 12:00:00 17.7 17 Oeste 32 Noroeste 0 -- -- 34
2018-05-02 11:00:00 16.6 18 Noroeste 31 Noroeste 0 -- -- 39
2018-05-02 10:00:00 14.7 5 Norte 13 Oeste 0 -- -- 45
2018-05-02 09:00:00 10.2 4 Sur 10 Sur 0 -- -- 58
2018-05-02 08:00:00 6.1 6 Sur 12 Sur 0 -- -- 72
2018-05-02 07:00:00 5.6 7 Sur 10 Sur 0 -- -- 73
2018-05-02 06:00:00 6 8 Sur 11 Sudeste 0 -- -- 72
2018-05-02 05:00:00 6.5 6 Sur 10 Sur 0 -- -- 71
2018-05-02 04:00:00 7.3 5 Sur 9 Sur 0 -- -- 68
2018-05-02 03:00:00 7.9 2 Sudeste 9 Sudoeste 0 -- -- 68
2018-05-02 02:00:00 8.5 4 Sudeste 12 Sur 0 -- -- 66
2018-05-02 01:00:00 9.7 6 Sur 10 Sudoeste 0 -- -- 62
2018-05-02 00:00:00 10.7 0 Calma 10 Sur 0 -- -- 56
2018-05-01 23:00:00 11.5 9 Sur 21 Sudeste 0 -- -- 54
2018-05-01 22:00:00 13 11 Sudeste 31 Este 0 -- -- 53
2018-05-01 21:00:00 14 11 Sur 25 Sur 0 -- -- 48
2018-05-01 20:00:00 15.6 13 Sur 26 Sur 0 -- -- 42
2018-05-01 19:00:00 15.8 12 Sudoeste 37 Sudoeste 0 -- -- 45
2018-05-01 18:00:00 14.2 16 Sudoeste 39 Sudoeste 0 -- -- 48
2018-05-01 17:00:00 15.1 10 Sur 26 Este 0.2 -- -- 44
2018-05-01 16:00:00 16.1 14 Sur 34 Sur 0 -- -- 41
2018-05-01 15:00:00 17.4 10 Nordeste 27 Nordeste 0 -- -- 31
2018-05-01 14:00:00 17.4 11 Norte 25 Nordeste 0 -- -- 33
2018-05-01 13:00:00 16.8 10 Norte 24 Norte 0 -- -- 35
2018-05-01 12:00:00 15.2 8 Norte 24 Noroeste 0 -- -- 41
2018-05-01 11:00:00 14.4 12 Norte 26 Norte 0 -- -- 43
2018-05-01 10:00:00 12.7 14 Norte 23 Norte 0 -- -- 48
2018-05-01 09:00:00 10.6 3 Nordeste 7 Nordeste 0 -- -- 59
2018-05-01 08:00:00 8.1 0 Calma 3 Sur 0 -- -- 67
2018-05-01 07:00:00 6.4 0 Calma 5 Nordeste 0 -- -- 71
2018-05-01 06:00:00 6.8 0 Calma 11 Oeste 0 -- -- 69
2018-05-01 05:00:00 7.8 0 Calma 12 Oeste 0 -- -- 66
2018-05-01 04:00:00 8.3 6 Oeste 9 Oeste 0 -- -- 64
2018-05-01 03:00:00 8.4 5 Oeste 8 Oeste 0 -- -- 63
2018-05-01 02:00:00 8.8 0 Calma 4 Norte 0 -- -- 62
2018-05-01 01:00:00 9.8 4 Noroeste 12 Norte 0 -- -- 59
2018-05-01 00:00:00 10.8 4 Noroeste 17 Noroeste 0 -- -- 56
2018-04-30 23:00:00 11.9 8 Noroeste 35 Noroeste 0 -- -- 51
2018-04-30 22:00:00 13.8 2 Sur 15 Sur 0 -- -- 46
2018-04-30 21:00:00 14.3 5 Sur 24 Sur 0 -- -- 43
2018-04-30 20:00:00 15 11 Sur 22 Sur 0 -- -- 42
2018-04-30 19:00:00 15.4 8 Oeste 25 Norte 0 -- -- 40
2018-04-30 18:00:00 15.6 15 Noroeste 31 Noroeste 0 -- -- 40
2018-04-30 17:00:00 17 15 Noroeste 28 Oeste 0 -- -- 38
2018-04-30 16:00:00 18.1 16 Nordeste 28 Nordeste 0 -- -- 35
2018-04-30 15:00:00 17.9 17 Norte 29 Noroeste 0 -- -- 36
2018-04-30 14:00:00 17.1 9 Noroeste 20 Noroeste 0 -- -- 38
2018-04-30 13:00:00 17.7 8 Este 19 Este 0 -- -- 36
2018-04-30 12:00:00 16.4 6 Este 12 Este 0 -- -- 40
2018-04-30 11:00:00 13.7 3 Noroeste 7 Este 0 -- -- 53
2018-04-30 10:00:00 12.3 3 Sur 7 Sudeste 0 -- -- 57
2018-04-30 09:00:00 9.4 5 Sur 10 Sudeste 0 -- -- 66
2018-04-30 08:00:00 8.1 6 Sur 9 Sur 0 -- -- 68
2018-04-30 07:00:00 8.3 5 Sur 10 Sudoeste 0 -- -- 66
2018-04-30 06:00:00 10.2 4 Oeste 8 Oeste 0 -- -- 62
2018-04-30 05:00:00 10.3 0 Calma 7 Sudeste 0 -- -- 60
2018-04-30 04:00:00 10.6 0 Calma 10 Noroeste 0 -- -- 56
2018-04-30 03:00:00 10.6 5 Sur 9 Sudoeste 0 -- -- 55
2018-04-30 02:00:00 12.1 8 Oeste 13 Oeste 0 -- -- 48
2018-04-30 01:00:00 12 4 Sur 14 Sudoeste 0 -- -- 46
2018-04-30 00:00:00 12.4 4 Sudeste 12 Oeste 0 -- -- 45
2018-04-29 23:00:00 14.6 8 Oeste 14 Oeste 0 -- -- 38
2018-04-29 22:00:00 14 3 Sudeste 7 Nordeste 0 -- -- 42
2018-04-29 21:00:00 15 2 Noroeste 17 Noroeste 0 -- -- 37
2018-04-29 20:00:00 16.6 11 Noroeste 26 Sudoeste 0 -- -- 35
2018-04-29 19:00:00 17.8 19 Oeste 34 Sudoeste 0 -- -- 31
2018-04-29 18:00:00 18.2 17 Sudoeste 41 Sudoeste 0 -- -- 29
2018-04-29 17:00:00 18.8 18 Oeste 42 Sudoeste 0 -- -- 28
2018-04-29 16:00:00 18.8 18 Sudoeste 48 Sudoeste 0 -- -- 28
2018-04-29 15:00:00 18.2 24 Oeste 44 Sudoeste 0 -- -- 28
2018-04-29 14:00:00 17.9 21 Sudoeste 47 Sur 0 -- -- 29
2018-04-29 13:00:00 16.8 20 Oeste 45 Sudoeste 0 -- -- 32
2018-04-29 12:00:00 16.5 19 Oeste 45 Oeste 0 -- -- 32
2018-04-29 11:00:00 15.2 23 Oeste 50 Sudoeste 0 -- -- 35
2018-04-29 10:00:00 14.4 20 Oeste 41 Oeste 0 -- -- 39
2018-04-29 09:00:00 13.5 21 Oeste 55 Sudoeste 0 -- -- 39
2018-04-29 08:00:00 12.2 13 Oeste 31 Oeste 0 -- -- 49
2018-04-29 07:00:00 12.1 12 Oeste 22 Sudoeste 0 -- -- 51
2018-04-29 06:00:00 11.6 2 Sudeste 8 Sur 0 -- -- 58
2018-04-29 05:00:00 12.1 4 Sur 9 Sur 0 -- -- 55
2018-04-29 04:00:00 13.4 8 Oeste 17 Oeste 0 -- -- 51
2018-04-29 03:00:00 13.5 2 Sur 6 Nordeste 0 -- -- 61
2018-04-29 02:00:00 14.1 4 Norte 13 Norte 0 -- -- 56
2018-04-29 01:00:00 15.1 4 Noroeste 10 Norte 0 -- -- 72
2018-04-29 00:00:00 15.8 0 Calma 10 Norte 0 -- -- 71
2018-04-28 23:00:00 16.6 5 Norte 12 Este 0 -- -- 70
2018-04-28 22:00:00 18.2 6 Nordeste 26 Sudeste 0 -- -- 66
2018-04-28 21:00:00 20.3 11 Este 33 Este 0 -- -- 54
2018-04-28 20:00:00 22.8 14 Sudeste 32 Sudeste 0 -- -- 44
2018-04-28 19:00:00 23.8 19 Sudeste 48 Este 0 -- -- 43
2018-04-28 18:00:00 24.7 24 Sudeste 46 Sudeste 0 -- -- 42
2018-04-28 17:00:00 25.1 24 Sudeste 49 Sudeste 0 -- -- 45
2018-04-28 16:00:00 25.2 23 Sudeste 40 Sudeste 0 -- -- 45
2018-04-28 15:00:00 27.1 12 Sur 31 Sudeste 0 -- -- 28
2018-04-28 14:00:00 24.3 12 Sudeste 32 Sudeste 0 -- -- 43
2018-04-28 13:00:00 24.2 8 Este 14 Sudeste 0 -- -- 46
2018-04-28 12:00:00 22.2 3 Este 11 Este 0 -- -- 50
2018-04-28 11:00:00 20 3 Nordeste 8 Norte 0 -- -- 57
2018-04-28 10:00:00 16.8 3 Noroeste 7 Noroeste 0 -- -- 71
2018-04-28 09:00:00 14.3 3 Sur 7 Sur 0 -- -- 76
2018-04-28 08:00:00 11.9 6 Sur 9 Sur 0 -- -- 85
2018-04-28 07:00:00 12.3 3 Sur 9 Sur 0 -- -- 85
2018-04-28 06:00:00 12.4 5 Sur 9 Sudeste 0 -- -- 85
2018-04-28 05:00:00 13.7 4 Sur 8 Sur 0 -- -- 82
2018-04-28 04:00:00 14 5 Sur 11 Sudoeste 0 -- -- 83
2018-04-28 03:00:00 14.4 4 Sur 8 Sudeste 0 -- -- 84
2018-04-28 02:00:00 15.2 6 Sudoeste 11 Sudoeste 0 -- -- 79
2018-04-28 01:00:00 15.4 4 Sur 13 Sur 0 -- -- 82
2018-04-28 00:00:00 16.4 8 Sur 14 Sudoeste 0 -- -- 80
2018-04-27 23:00:00 17.1 9 Sudoeste 18 Sudoeste 0 -- -- 79
2018-04-27 22:00:00 17.2 7 Oeste 19 Oeste 0 -- -- 81
2018-04-27 21:00:00 18.1 9 Sur 19 Sudoeste 0.2 -- -- 78
2018-04-27 20:00:00 18.2 3 Noroeste 25 Sur 1 -- -- 74
2018-04-27 19:00:00 20.1 8 Este 24 Este 0.6 -- -- 59
2018-04-27 18:00:00 23 12 Sudeste 32 Sur 1.2 -- -- 48
2018-04-27 17:00:00 24.4 14 Sur 31 Sur 0 -- -- 49
2018-04-27 16:00:00 21.7 10 Sudoeste 27 Sudoeste 0.2 -- -- 47
2018-04-27 15:00:00 17.4 13 Noroeste 39 Oeste 2.2 -- -- 71
2018-04-27 14:00:00 28.1 6 Este 18 Noroeste 0 -- -- 35
2018-04-27 13:00:00 26.6 9 Norte 22 Norte 0 -- -- 40
2018-04-27 12:00:00 24.9 6 Nordeste 12 Este 0 -- -- 46
2018-04-27 11:00:00 21.3 4 Sudeste 9 Sudeste 0 -- -- 56
2018-04-27 10:00:00 17.9 3 Sudeste 6 Este 0 -- -- 67
2018-04-27 09:00:00 14.3 3 Norte 10 Noroeste 0 -- -- 80
2018-04-27 08:00:00 11.9 3 Sur 6 Sudeste 0 -- -- 85
2018-04-27 07:00:00 11.7 5 Sur 6 Sur 0 -- -- 86
2018-04-27 06:00:00 12.4 5 Sudoeste 9 Oeste 0 -- -- 86
2018-04-27 05:00:00 12.8 4 Sudeste 8 Sur 0 -- -- 83
2018-04-27 04:00:00 13.4 4 Sudeste 6 Sur 0 -- -- 82
2018-04-27 03:00:00 13.8 5 Oeste 11 Oeste 0 -- -- 85
2018-04-27 02:00:00 14.4 5 Noroeste 12 Oeste 0 -- -- 82
2018-04-27 01:00:00 15.4 3 Sudeste 12 Sur 0 -- -- 78
2018-04-27 00:00:00 16.1 2 Sudeste 16 Sudeste 0 -- -- 75
2018-04-26 23:00:00 16.9 5 Este 22 Sudeste 0 -- -- 74
2018-04-26 22:00:00 17.6 12 Sudeste 27 Sudeste 0 -- -- 72
2018-04-26 21:00:00 18.7 16 Sudeste 27 Sudeste 0 -- -- 67
2018-04-26 20:00:00 20.7 18 Sudeste 29 Sudeste 0 -- -- 56
2018-04-26 19:00:00 22 12 Sudeste 29 Sudeste 0 -- -- 48
2018-04-26 18:00:00 22.3 16 Sudeste 26 Sudeste 0 -- -- 48
2018-04-26 17:00:00 22.5 14 Sudeste 27 Sudeste 0 -- -- 46
2018-04-26 16:00:00 21.7 10 Sudeste 27 Sudeste 0 -- -- 47
2018-04-26 15:00:00 22.8 15 Sudeste 27 Sudeste 0 -- -- 44
2018-04-26 14:00:00 22.4 9 Este 17 Este 0 -- -- 44
2018-04-26 13:00:00 21.7 4 Nordeste 13 Este 0 -- -- 45
2018-04-26 12:00:00 20.4 5 Nordeste 15 Norte 0 -- -- 48
2018-04-26 11:00:00 18.3 11 Noroeste 20 Noroeste 0 -- -- 53
2018-04-26 10:00:00 16.5 4 Norte 15 Noroeste 0 -- -- 64
2018-04-26 09:00:00 15.5 2 Nordeste 15 Noroeste 0 -- -- 70
2018-04-26 08:00:00 14.9 7 Noroeste 14 Noroeste 0 -- -- 72
2018-04-26 07:00:00 14.2 8 Noroeste 14 Noroeste 0.2 -- -- 80
2018-04-26 06:00:00 14.6 7 Noroeste 12 Oeste 0.4 -- -- 78
2018-04-26 05:00:00 16 9 Noroeste 14 Oeste 0 -- -- 63
2018-04-26 04:00:00 16 0 Calma 15 Oeste 0 -- -- 65
2018-04-26 03:00:00 16.6 10 Oeste 15 Oeste 0 -- -- 57
2018-04-26 02:00:00 16.7 7 Noroeste 11 Noroeste 0 -- -- 58
2018-04-26 01:00:00 17.4 6 Noroeste 10 Nordeste 0 -- -- 58
2018-04-26 00:00:00 17.9 4 Nordeste 8 Norte 0 -- -- 58
2018-04-25 23:00:00 17.8 3 Norte 6 Norte 0 -- -- 64
2018-04-25 22:00:00 17.9 3 Nordeste 10 Este 0 -- -- 66
2018-04-25 21:00:00 18.9 6 Este 13 Sudeste 0 -- -- 61
2018-04-25 20:00:00 19.7 6 Sudeste 14 Sudeste 0 -- -- 55
2018-04-25 19:00:00 20.2 11 Sudeste 21 Sudeste 0 -- -- 53
2018-04-25 18:00:00 21.5 10 Sudeste 20 Sudeste 0 -- -- 46
2018-04-25 17:00:00 22.7 5 Sudeste 15 Sur 0 -- -- 38
2018-04-25 16:00:00 22 4 Nordeste 14 Nordeste 0 -- -- 39
2018-04-25 15:00:00 22 6 Norte 15 Norte 0 -- -- 39
2018-04-25 14:00:00 21.5 3 Sudeste 22 Sudeste 0 -- -- 40
2018-04-25 13:00:00 20.4 14 Sudeste 21 Sudeste 0 -- -- 43
2018-04-25 12:00:00 20.2 6 Este 13 Este 0 -- -- 42
2018-04-25 11:00:00 19 5 Norte 19 Noroeste 0 -- -- 44
2018-04-25 10:00:00 18.6 11 Noroeste 23 Noroeste 0 -- -- 44
2018-04-25 09:00:00 16.1 8 Noroeste 17 Noroeste 0 -- -- 55
2018-04-25 08:00:00 15.2 7 Noroeste 16 Noroeste 0 -- -- 54
2018-04-25 07:00:00 14.9 10 Noroeste 17 Noroeste 0 -- -- 56
2018-04-25 06:00:00 14.9 6 Noroeste 13 Oeste 0 -- -- 56
2018-04-25 05:00:00 15.3 6 Noroeste 16 Noroeste 0 -- -- 54
2018-04-25 04:00:00 14.7 10 Noroeste 15 Oeste 0 -- -- 57
2018-04-25 03:00:00 15.5 6 Oeste 17 Oeste 0 -- -- 54
2018-04-25 02:00:00 16.3 8 Noroeste 12 Noroeste 0 -- -- 52
2018-04-25 01:00:00 16.3 9 Noroeste 13 Noroeste 0 -- -- 53
2018-04-25 00:00:00 17.4 8 Oeste 13 Oeste 0 -- -- 50
2018-04-24 23:00:00 18.3 3 Sudeste 9 Sur 0 -- -- 48
2018-04-24 22:00:00 19.4 5 Sur 21 Sudeste 0 -- -- 45
2018-04-24 21:00:00 20.4 12 Sudeste 23 Sudeste 0 -- -- 42
2018-04-24 20:00:00 21.8 14 Sudeste 40 Sudeste 0 -- -- 39
2018-04-24 19:00:00 23.2 23 Sudeste 44 Sudeste 0 -- -- 35
2018-04-24 18:00:00 24.9 25 Sudeste 47 Sudeste 0 -- -- 32
2018-04-24 17:00:00 26.4 22 Sudeste 37 Sudeste 0 -- -- 30
2018-04-24 16:00:00 27 24 Sudeste 49 Sudeste 0 -- -- 28
2018-04-24 15:00:00 27.2 8 Nordeste 21 Nordeste 0 -- -- 28
2018-04-24 14:00:00 26 8 Nordeste 17 Nordeste 0 -- -- 30
2018-04-24 13:00:00 23.7 6 Noroeste 13 Este 0 -- -- 32
2018-04-24 12:00:00 23.2 3 Sudeste 13 Nordeste 0 -- -- 34
2018-04-24 11:00:00 21.4 4 Nordeste 16 Norte 0 -- -- 37
2018-04-24 10:00:00 18.7 6 Norte 15 Noroeste 0 -- -- 43
2018-04-24 09:00:00 16.2 4 Norte 9 Norte 0 -- -- 49
2018-04-24 08:00:00 15.7 4 Noroeste 18 Oeste 0 -- -- 48
2018-04-24 07:00:00 15.6 10 Noroeste 17 Noroeste 0 -- -- 50
2018-04-24 06:00:00 15.3 7 Noroeste 12 Oeste 0 -- -- 51
2018-04-24 05:00:00 15.8 5 Oeste 13 Noroeste 0 -- -- 50
2018-04-24 04:00:00 16.4 7 Oeste 15 Norte 0 -- -- 48
2018-04-24 03:00:00 16.2 8 Noroeste 13 Noroeste 0 -- -- 48
2018-04-24 02:00:00 17.6 3 Noroeste 7 Noroeste 0 -- -- 44
2018-04-24 01:00:00 18.3 3 Sudeste 15 Norte 0 -- -- 43
2018-04-24 00:00:00 18.4 7 Norte 15 Norte 0 -- -- 44
2018-04-23 23:00:00 19.2 12 Nordeste 17 Nordeste 0 -- -- 43
2018-04-23 22:00:00 20.3 3 Sudeste 33 Este 0 -- -- 41
2018-04-23 21:00:00 21.5 15 Este 33 Sudeste 0 -- -- 41
2018-04-23 20:00:00 23.6 13 Este 27 Este 0 -- -- 34
2018-04-23 19:00:00 25.8 12 Nordeste 23 Este 0 -- -- 29
2018-04-23 18:00:00 27.3 9 Nordeste 23 Este 0 -- -- 24
2018-04-23 17:00:00 26.6 9 Nordeste 19 Este 0 -- -- 27
2018-04-23 16:00:00 26.5 8 Norte 19 Nordeste 0 -- -- 27
2018-04-23 15:00:00 25.2 6 Este 17 Nordeste 0 -- -- 29
2018-04-23 14:00:00 24 5 Nordeste 13 Nordeste 0 -- -- 30
2018-04-23 13:00:00 22.6 3 Oeste 10 Nordeste 0 -- -- 34
2018-04-23 12:00:00 22.1 6 Oeste 13 Oeste 0 -- -- 36
2018-04-23 11:00:00 19.6 4 Noroeste 11 Norte 0 -- -- 44
2018-04-23 10:00:00 17.1 6 Noroeste 16 Noroeste 0 -- -- 52
2018-04-23 09:00:00 15.8 4 Noroeste 12 Oeste 0 -- -- 53
2018-04-23 08:00:00 14.7 6 Oeste 14 Noroeste 0 -- -- 53
2018-04-23 07:00:00 14.9 9 Oeste 15 Oeste 0 -- -- 55
2018-04-23 06:00:00 14.5 6 Norte 15 Norte 0 -- -- 57
2018-04-23 05:00:00 14.8 8 Noroeste 15 Noroeste 0 -- -- 55
2018-04-23 04:00:00 14.4 5 Noroeste 13 Norte 0 -- -- 56
2018-04-23 03:00:00 14.9 2 Nordeste 15 Sur 0 -- -- 54
2018-04-23 02:00:00 15 0 Calma 8 Sur 0 -- -- 54
2018-04-23 01:00:00 16.2 4 Sur 10 Sur 0 -- -- 50
2018-04-23 00:00:00 16.6 3 Sur 14 Sudeste 0 -- -- 47
2018-04-22 23:00:00 17.5 8 Sudeste 19 Sudeste 0 -- -- 45
2018-04-22 22:00:00 18.7 12 Sudeste 26 Sudeste 0 -- -- 46
2018-04-22 21:00:00 20 15 Sudeste 29 Sudeste 0 -- -- 34
2018-04-22 20:00:00 21.4 15 Sudeste 27 Sudeste 0 -- -- 27
2018-04-22 19:00:00 22.5 16 Sudeste 31 Sudeste 0 -- -- 27
2018-04-22 18:00:00 23.2 16 Sudeste 31 Sudeste 0 -- -- 29
2018-04-22 17:00:00 24 18 Sudeste 33 Sudeste 0 -- -- 30
2018-04-22 16:00:00 24.3 15 Sudeste 32 Sudeste 0 -- -- 28
2018-04-22 15:00:00 24.1 17 Sudeste 30 Sudeste 0 -- -- 33
2018-04-22 14:00:00 23.8 12 Sudeste 28 Este 0 -- -- 36
2018-04-22 13:00:00 21.5 7 Nordeste 13 Nordeste 0 -- -- 47
2018-04-22 12:00:00 20 4 Sudeste 13 Sur 0 -- -- 50
2018-04-22 11:00:00 18 2 Sudoeste 6 Noroeste 0 -- -- 56
2018-04-22 10:00:00 15.5 3 Nordeste 6 Nordeste 0 -- -- 67
2018-04-22 09:00:00 13.3 2 Nordeste 6 Sur 0 -- -- 79
2018-04-22 08:00:00 11.9 3 Sur 5 Sur 0 -- -- 84
2018-04-22 07:00:00 12.2 3 Sudoeste 4 Sudoeste 0 -- -- 81
2018-04-22 06:00:00 12.9 0 Calma 9 Sudoeste 0.4 -- -- 79
2018-04-22 05:00:00 13.5 4 Este 9 Sur 0 -- -- 71
2018-04-22 04:00:00 13.8 5 Sur 9 Sur 0 -- -- 69
2018-04-22 03:00:00 13.9 5 Sur 8 Sur 0 -- -- 68
2018-04-22 02:00:00 14.2 4 Sur 8 Sudeste 0 -- -- 67
2018-04-22 01:00:00 14.4 5 Sudeste 14 Sur 0 -- -- 65
2018-04-22 00:00:00 15.1 7 Sur 15 Sur 0 -- -- 63